Time;durP1;ratioP1;P1;durP2;ratioP2;P2;SDS_P1;SDS_P2;PMS_P1;PMS_P2;Temp;Humidity;BMP_temperature;BMP_pressure;BME280_temperature;BME280_humidity;BME280_pressure;Samples;Min_cycle;Max_cycle;Signal;HPM_P1;HPM_P2
2021/08/17 00:01:47;;;;;;;14.00;5.80;;;13.10;57.50;;;;;;5056699;28;20384;-77
2021/08/17 00:04:13;;;;;;;23.77;6.50;;;13.10;58.60;;;;;;5036873;28;20410;-77
2021/08/17 00:06:39;;;;;;;15.80;6.75;;;13.10;59.80;;;;;;5034269;28;20393;-77
2021/08/17 00:09:04;;;;;;;15.10;6.70;;;13.10;60.60;;;;;;5033289;28;20391;-76
2021/08/17 00:11:30;;;;;;;20.90;6.87;;;13.00;61.50;;;;;;5053293;28;20496;-77
2021/08/17 00:13:56;;;;;;;22.73;7.37;;;12.90;62.90;;;;;;5053951;28;20746;-75
2021/08/17 00:16:22;;;;;;;25.58;6.93;;;13.00;63.20;;;;;;5055238;28;20397;-77
2021/08/17 00:18:48;;;;;;;21.90;7.07;;;12.90;64.70;;;;;;5054527;28;20862;-77
2021/08/17 00:21:15;;;;;;;23.57;8.40;;;13.00;65.20;;;;;;5054473;28;20395;-77
2021/08/17 00:23:40;;;;;;;25.77;8.47;;;12.90;66.50;;;;;;5054253;28;20863;-77
2021/08/17 00:26:06;;;;;;;18.07;8.60;;;12.90;67.40;;;;;;5057324;28;20457;-77
2021/08/17 00:28:32;;;;;;;24.67;8.23;;;12.90;68.70;;;;;;5055545;28;20397;-78
2021/08/17 00:30:57;;;;;;;21.87;9.17;;;12.80;70.10;;;;;;5054664;28;20402;-77
2021/08/17 00:33:24;;;;;;;20.88;8.70;;;12.80;71.10;;;;;;5055179;28;20389;-77
2021/08/17 00:35:50;;;;;;;33.40;10.13;;;12.80;71.90;;;;;;5055166;28;20472;-78
2021/08/17 00:38:15;;;;;;;24.80;9.48;;;12.80;72.40;;;;;;5054483;28;20464;-78
2021/08/17 00:40:41;;;;;;;27.15;10.95;;;12.80;73.50;;;;;;5047369;28;20426;-77
2021/08/17 00:43:10;;;;;;;28.58;10.18;;;12.80;73.90;;;;;;5023242;28;20399;-77
2021/08/17 00:45:36;;;;;;;27.88;10.95;;;12.80;74.10;;;;;;5040556;28;20392;-77
2021/08/17 00:48:02;;;;;;;27.45;10.00;;;12.70;74.70;;;;;;5034184;28;20382;-77
2021/08/17 00:50:30;;;;;;;23.97;10.53;;;12.70;75.90;;;;;;5051575;28;20482;-76
2021/08/17 00:52:56;;;;;;;27.02;11.25;;;12.70;76.80;;;;;;5053702;28;20394;-77
2021/08/17 00:55:22;;;;;;;27.50;11.40;;;12.60;77.40;;;;;;5032393;28;20411;-77
2021/08/17 00:57:48;;;;;;;33.60;12.80;;;12.60;78.50;;;;;;5048035;28;20853;-77
2021/08/17 01:00:14;;;;;;;31.27;11.20;;;12.70;77.80;;;;;;5050762;28;20382;-77
2021/08/17 01:02:41;;;;;;;31.13;12.73;;;12.70;78.30;;;;;;5033575;28;20411;-76
2021/08/17 01:05:08;;;;;;;36.45;13.57;;;12.60;78.00;;;;;;5050684;28;20401;-75
2021/08/17 01:07:34;;;;;;;37.47;15.20;;;12.60;80.10;;;;;;5049952;28;20397;-75
2021/08/17 01:10:00;;;;;;;40.03;14.60;;;12.60;79.70;;;;;;5050269;28;20390;-77
2021/08/17 01:12:25;;;;;;;36.22;14.60;;;12.60;80.70;;;;;;5049244;28;20488;-75
2021/08/17 01:14:51;;;;;;;38.57;16.30;;;12.60;81.40;;;;;;5052674;28;20377;-75
2021/08/17 01:17:20;;;;;;;41.80;16.17;;;12.50;82.90;;;;;;5053921;28;20711;-77
2021/08/17 01:19:47;;;;;;;39.50;17.73;;;12.60;82.70;;;;;;5053975;28;20455;-75
2021/08/17 01:22:12;;;;;;;46.60;17.88;;;12.70;82.50;;;;;;5036855;28;20464;-76
2021/08/17 01:24:38;;;;;;;46.53;18.80;;;12.60;83.10;;;;;;5037489;28;20401;-76
2021/08/17 01:27:04;;;;;;;53.83;19.80;;;12.60;83.20;;;;;;5054268;28;20373;-76
2021/08/17 01:29:30;;;;;;;49.13;19.30;;;12.70;83.90;;;;;;5053689;28;20962;-76
2021/08/17 01:31:57;;;;;;;55.58;21.40;;;12.70;83.50;;;;;;5039510;28;20422;-76
2021/08/17 01:34:23;;;;;;;55.85;21.65;;;12.80;84.30;;;;;;5034081;28;20399;-76
2021/08/17 01:36:49;;;;;;;49.55;20.42;;;12.80;84.00;;;;;;5033842;28;20406;-76
2021/08/17 01:39:15;;;;;;;60.75;22.08;;;12.70;83.50;;;;;;5040053;28;20890;-77
2021/08/17 01:41:42;;;;;;;59.53;23.10;;;12.70;84.40;;;;;;5053566;28;20484;-74
2021/08/17 01:44:10;;;;;;;65.10;23.90;;;12.70;84.90;;;;;;5053623;28;20464;-75
2021/08/17 01:46:37;;;;;;;63.25;23.63;;;12.80;83.90;;;;;;5053608;28;20388;-76
2021/08/17 01:49:03;;;;;;;64.60;25.88;;;12.70;85.20;;;;;;5053271;28;20753;-75
2021/08/17 01:51:28;;;;;;;74.60;25.90;;;12.60;87.10;;;;;;5052871;28;20476;-75
2021/08/17 01:53:54;;;;;;;67.13;26.23;;;12.70;87.00;;;;;;5053844;28;20460;-76
2021/08/17 01:56:20;;;;;;;79.50;27.73;;;12.70;87.20;;;;;;5053717;28;20496;-75
2021/08/17 01:58:45;;;;;;;71.55;27.73;;;12.80;87.50;;;;;;5051437;28;20396;-75
2021/08/17 02:01:13;;;;;;;80.80;28.53;;;12.70;87.10;;;;;;5053775;28;20431;-76
2021/08/17 02:03:39;;;;;;;78.60;29.50;;;12.70;88.50;;;;;;5053757;28;20422;-77
2021/08/17 02:06:06;;;;;;;83.90;30.42;;;12.70;88.70;;;;;;5054204;28;20397;-77
2021/08/17 02:08:32;;;;;;;87.55;30.38;;;12.70;89.30;;;;;;5050926;28;20404;-78
2021/08/17 02:10:58;;;;;;;85.57;31.63;;;12.60;89.90;;;;;;5029822;28;20393;-75
2021/08/17 02:13:24;;;;;;;78.22;30.95;;;12.70;89.80;;;;;;5053708;28;20385;-77
2021/08/17 02:15:50;;;;;;;90.25;32.80;;;12.70;89.60;;;;;;5054458;28;20459;-76
2021/08/17 02:18:16;;;;;;;89.43;32.35;;;12.60;90.40;;;;;;5055436;28;20920;-76
2021/08/17 02:20:42;;;;;;;91.22;31.65;;;12.60;91.00;;;;;;5054241;28;20423;-75
2021/08/17 02:23:08;;;;;;;88.55;33.53;;;12.70;90.60;;;;;;5052876;28;20396;-75
2021/08/17 02:25:34;;;;;;;91.03;32.80;;;12.80;89.00;;;;;;5052382;28;20455;-75
2021/08/17 02:28:00;;;;;;;86.38;32.35;;;12.70;89.80;;;;;;5052159;28;20390;-77
2021/08/17 02:30:26;;;;;;;93.47;34.25;;;12.70;90.30;;;;;;5052900;28;20409;-75
2021/08/17 02:32:52;;;;;;;98.45;34.15;;;12.80;89.40;;;;;;5035863;28;20435;-74
2021/08/17 02:35:18;;;;;;;90.15;33.90;;;12.80;89.80;;;;;;5032535;28;20446;-76
2021/08/17 02:37:43;;;;;;;100.47;34.73;;;12.80;89.20;;;;;;5050203;28;20400;-76
2021/08/17 02:40:10;;;;;;;93.13;32.85;;;12.80;89.50;;;;;;5052408;28;20716;-77
2021/08/17 02:42:36;;;;;;;100.55;36.28;;;12.70;90.10;;;;;;5038760;28;20391;-75
2021/08/17 02:45:01;;;;;;;93.07;33.63;;;12.80;90.80;;;;;;5035718;28;20382;-75
2021/08/17 02:47:27;;;;;;;98.60;35.60;;;12.80;91.20;;;;;;5051980;28;20739;-76
2021/08/17 02:49:53;;;;;;;99.30;35.08;;;12.70;90.10;;;;;;5052172;28;20464;-75
2021/08/17 02:52:19;;;;;;;97.68;34.88;;;12.70;91.30;;;;;;5051641;28;20401;-75
2021/08/17 02:54:45;;;;;;;117.33;37.13;;;12.80;91.10;;;;;;5052007;28;20816;-76
2021/08/17 02:57:10;;;;;;;102.25;34.08;;;12.70;91.60;;;;;;5051903;28;20460;-76
2021/08/17 02:59:36;;;;;;;98.63;35.63;;;12.80;91.30;;;;;;5051835;28;20791;-74
2021/08/17 03:02:03;;;;;;;100.82;35.42;;;12.80;91.10;;;;;;5040684;28;20530;-76
2021/08/17 03:04:29;;;;;;;96.53;34.45;;;12.80;91.00;;;;;;5035030;28;20394;-76
2021/08/17 03:06:55;;;;;;;95.37;35.33;;;12.90;90.10;;;;;;5051910;28;20716;-75
2021/08/17 03:09:21;;;;;;;100.23;35.60;;;13.00;89.00;;;;;;5051449;28;20874;-75
2021/08/17 03:11:47;;;;;;;94.88;35.28;;;13.00;88.60;;;;;;5043523;28;20427;-75
2021/08/17 03:14:13;;;;;;;95.22;34.28;;;13.00;86.50;;;;;;5031650;28;20488;-76
2021/08/17 03:16:39;;;;;;;94.10;34.22;;;13.00;87.20;;;;;;5031690;28;20403;-75
2021/08/17 03:19:05;;;;;;;88.30;33.28;;;13.00;86.00;;;;;;5037826;28;20762;-76
2021/08/17 03:21:31;;;;;;;92.55;33.30;;;12.90;86.60;;;;;;5046497;28;20406;-76
2021/08/17 03:23:57;;;;;;;91.70;34.50;;;12.90;86.20;;;;;;5034061;28;20379;-75
2021/08/17 03:26:22;;;;;;;86.10;32.90;;;13.00;86.80;;;;;;5051540;28;20742;-76
2021/08/17 03:28:48;;;;;;;86.00;32.00;;;13.00;86.30;;;;;;5050816;28;20408;-75
2021/08/17 03:31:13;;;;;;;87.30;32.13;;;13.10;85.00;;;;;;5051843;28;20389;-74
2021/08/17 03:33:39;;;;;;;87.55;33.25;;;13.10;84.00;;;;;;5050831;28;20399;-76
2021/08/17 03:36:05;;;;;;;89.93;33.90;;;13.00;84.40;;;;;;5049931;28;20465;-76
2021/08/17 03:38:31;;;;;;;83.50;34.00;;;13.00;85.00;;;;;;5051024;28;20389;-76
2021/08/17 03:40:58;;;;;;;81.67;33.17;;;13.00;85.10;;;;;;5051432;28;20877;-76
2021/08/17 03:43:25;;;;;;;84.20;33.57;;;12.90;85.30;;;;;;5051291;28;20381;-77
2021/08/17 03:45:51;;;;;;;87.22;33.95;;;13.00;85.50;;;;;;5047114;28;20397;-77
2021/08/17 03:48:16;;;;;;;86.88;33.90;;;13.00;85.10;;;;;;5050446;28;20484;-76
2021/08/17 03:50:42;;;;;;;87.20;34.00;;;12.80;86.20;;;;;;5051234;28;20477;-76
2021/08/17 03:53:08;;;;;;;91.10;33.20;;;12.70;89.90;;;;;;5050948;28;20949;-78
2021/08/17 03:55:34;;;;;;;86.20;32.80;;;12.80;88.80;;;;;;5049907;28;20417;-77
2021/08/17 03:57:59;;;;;;;91.53;33.00;;;12.70;89.10;;;;;;5050689;28;20420;-77
2021/08/17 04:00:28;;;;;;;95.03;33.50;;;12.70;89.80;;;;;;5050859;28;20874;-76
2021/08/17 04:02:55;;;;;;;95.88;34.03;;;12.60;91.10;;;;;;5049963;28;20465;-74
2021/08/17 04:05:21;;;;;;;88.45;34.67;;;12.70;91.10;;;;;;5050782;28;20491;-75
2021/08/17 04:07:46;;;;;;;94.18;34.97;;;12.70;91.50;;;;;;5050396;28;20417;-75
2021/08/17 04:10:12;;;;;;;94.32;32.97;;;12.70;91.60;;;;;;5050583;28;20420;-76
2021/08/17 04:12:38;;;;;;;90.18;32.70;;;12.80;90.50;;;;;;5048807;28;20447;-75
2021/08/17 04:15:06;;;;;;;86.97;32.75;;;12.70;91.00;;;;;;5030715;28;20470;-76
2021/08/17 04:17:32;;;;;;;90.70;33.73;;;12.80;89.60;;;;;;5048834;28;20477;-76
2021/08/17 04:19:57;;;;;;;89.50;33.13;;;12.80;90.10;;;;;;5056290;28;20944;-76
2021/08/17 04:22:23;;;;;;;98.30;34.33;;;12.80;90.30;;;;;;5056011;28;20431;-75
2021/08/17 04:24:49;;;;;;;93.82;33.92;;;12.80;90.60;;;;;;5055048;28;20393;-77
2021/08/17 04:27:15;;;;;;;92.60;35.05;;;12.80;90.10;;;;;;5054474;28;20432;-80
2021/08/17 04:29:41;;;;;;;97.27;33.83;;;12.80;91.60;;;;;;5051381;28;20493;-75
2021/08/17 04:32:07;;;;;;;105.03;34.50;;;12.80;91.00;;;;;;5054832;28;20603;-76
2021/08/17 04:34:33;;;;;;;91.95;33.60;;;12.90;91.20;;;;;;5053936;28;20417;-76
2021/08/17 04:36:59;;;;;;;94.93;33.88;;;12.90;90.20;;;;;;5055274;28;20479;-75
2021/08/17 04:39:24;;;;;;;89.43;32.45;;;12.90;89.90;;;;;;5052773;28;20468;-77
2021/08/17 04:41:50;;;;;;;91.35;32.60;;;13.00;89.00;;;;;;5058196;28;20380;-77
2021/08/17 04:44:15;;;;;;;86.30;32.00;;;12.90;89.70;;;;;;5055227;28;20451;-76
2021/08/17 04:46:41;;;;;;;88.77;32.20;;;13.00;89.70;;;;;;5055059;28;20389;-75
2021/08/17 04:49:08;;;;;;;88.23;33.07;;;13.10;88.60;;;;;;5057270;28;20931;-75
2021/08/17 04:51:34;;;;;;;87.45;33.13;;;13.00;88.70;;;;;;5055054;28;20439;-74
2021/08/17 04:53:59;;;;;;;84.50;32.83;;;13.00;88.60;;;;;;5054798;28;20480;-75
2021/08/17 04:56:25;;;;;;;81.20;32.40;;;13.10;88.40;;;;;;5020960;28;20499;-73
2021/08/17 04:58:51;;;;;;;85.53;33.00;;;13.10;88.10;;;;;;5040593;28;20400;-73
2021/08/17 05:01:17;;;;;;;83.72;31.92;;;13.10;88.20;;;;;;5054469;28;20872;-74
2021/08/17 05:03:42;;;;;;;82.72;30.48;;;13.30;86.50;;;;;;5054718;28;20385;-74
2021/08/17 05:06:08;;;;;;;85.80;31.90;;;13.50;83.20;;;;;;5054422;28;20897;-76
2021/08/17 05:08:34;;;;;;;72.63;30.38;;;13.50;82.70;;;;;;5054400;28;20409;-76
2021/08/17 05:10:59;;;;;;;76.67;30.80;;;13.60;80.10;;;;;;5054411;28;20414;-75
2021/08/17 05:13:25;;;;;;;70.67;29.97;;;13.60;80.00;;;;;;5054152;28;20400;-76
2021/08/17 05:15:51;;;;;;;76.93;29.87;;;13.80;77.50;;;;;;5054292;28;20412;-74
2021/08/17 05:18:16;;;;;;;70.77;28.87;;;13.80;77.00;;;;;;5041769;28;20406;-76
2021/08/17 05:20:42;;;;;;;73.80;28.93;;;13.80;76.90;;;;;;5016127;28;20384;-73
2021/08/17 05:23:07;;;;;;;65.85;28.67;;;13.90;75.60;;;;;;5039951;28;20425;-76
2021/08/17 05:25:33;;;;;;;77.13;30.10;;;13.90;73.90;;;;;;5054175;28;20412;-74
2021/08/17 05:27:58;;;;;;;70.60;28.80;;;13.90;74.40;;;;;;5053517;28;20389;-74
2021/08/17 05:30:24;;;;;;;66.25;28.00;;;13.90;75.20;;;;;;5038467;28;20907;-74
2021/08/17 05:32:51;;;;;;;75.23;29.63;;;13.90;75.40;;;;;;5034457;28;20387;-73
2021/08/17 05:35:17;;;;;;;63.70;27.33;;;14.00;74.00;;;;;;5033946;28;20434;-74
2021/08/17 05:37:43;;;;;;;69.82;29.63;;;14.10;72.30;;;;;;5038092;28;20393;-75
2021/08/17 05:40:09;;;;;;;76.70;30.20;;;14.00;73.50;;;;;;5053687;28;20420;-76
2021/08/17 05:42:35;;;;;;;71.28;29.80;;;14.00;72.90;;;;;;5052800;28;20416;-75
2021/08/17 05:45:01;;;;;;;71.10;29.13;;;14.00;72.20;;;;;;5054025;28;20535;-75
2021/08/17 05:47:27;;;;;;;73.43;30.67;;;14.00;72.60;;;;;;5053074;28;20397;-77
2021/08/17 05:49:53;;;;;;;72.00;29.80;;;14.10;71.50;;;;;;5053696;28;20454;-74
2021/08/17 05:52:18;;;;;;;72.25;29.70;;;14.10;71.50;;;;;;5053111;28;20397;-76
2021/08/17 05:54:44;;;;;;;73.03;29.52;;;14.20;69.80;;;;;;5051990;28;20507;-76
2021/08/17 05:57:10;;;;;;;69.78;29.65;;;14.20;69.30;;;;;;5054905;28;20531;-77
2021/08/17 05:59:35;;;;;;;69.35;30.13;;;14.20;69.90;;;;;;5036801;28;20457;-76
2021/08/17 06:02:03;;;;;;;70.20;29.90;;;14.30;69.20;;;;;;5054453;28;20444;-76
2021/08/17 06:04:29;;;;;;;70.07;30.10;;;14.30;69.20;;;;;;5053689;28;20393;-76
2021/08/17 06:06:55;;;;;;;73.23;29.20;;;14.40;70.10;;;;;;5053116;28;20474;-75
2021/08/17 06:09:22;;;;;;;67.18;29.23;;;14.60;66.00;;;;;;5033685;28;20412;-76
2021/08/17 06:11:49;;;;;;;67.68;29.20;;;14.80;64.30;;;;;;5053214;28;20397;-76
2021/08/17 06:14:15;;;;;;;67.82;27.75;;;15.10;60.00;;;;;;5051959;28;20519;-74
2021/08/17 06:16:42;;;;;;;66.32;28.80;;;15.30;58.20;;;;;;5051240;28;20478;-75
2021/08/17 06:19:07;;;;;;;68.57;29.67;;;15.20;57.30;;;;;;5051308;28;20815;-74
2021/08/17 06:21:34;;;;;;;65.70;29.50;;;15.30;57.50;;;;;;5051329;28;20397;-76
2021/08/17 06:24:01;;;;;;;72.23;29.60;;;15.30;56.80;;;;;;5035130;28;20592;-76
2021/08/17 06:26:26;;;;;;;70.20;29.88;;;15.40;57.70;;;;;;5052835;28;20444;-76
2021/08/17 06:28:52;;;;;;;75.80;29.50;;;15.60;56.60;;;;;;5037945;28;20457;-76
2021/08/17 06:31:22;;;;;;;64.72;29.08;;;15.80;54.40;;;;;;5053116;28;20458;-75
2021/08/17 06:33:52;;;;;;;68.25;29.35;;;15.90;52.50;;;;;;5052971;28;20398;-75
2021/08/17 06:36:18;;;;;;;64.03;28.63;;;16.20;50.90;;;;;;5052690;28;20520;-74
2021/08/17 06:38:44;;;;;;;64.43;28.55;;;16.20;49.90;;;;;;5052747;28;20398;-75
2021/08/17 06:41:36;;;;;;;63.28;27.88;;;16.30;49.80;;;;;;5053092;28;20397;-74
2021/08/17 06:44:02;;;;;;;65.50;27.90;;;16.20;50.30;;;;;;5053517;28;20480;-74
2021/08/17 06:46:28;;;;;;;71.43;28.35;;;16.10;50.10;;;;;;5053159;28;20494;-74
2021/08/17 06:48:55;;;;;;;60.88;27.23;;;16.10;50.80;;;;;;5053317;28;20861;-75
2021/08/17 06:51:20;;;;;;;61.83;29.25;;;16.20;51.90;;;;;;5053320;28;20423;-75
2021/08/17 06:53:46;;;;;;;65.97;28.08;;;16.10;50.80;;;;;;5053200;28;20390;-74
2021/08/17 06:56:12;;;;;;;70.50;29.10;;;16.10;51.20;;;;;;5053342;28;20408;-74
2021/08/17 06:58:37;;;;;;;67.43;27.93;;;16.10;51.60;;;;;;5052857;28;20409;-74
2021/08/17 07:01:03;;;;;;;69.03;29.53;;;16.20;50.80;;;;;;5055093;28;20424;-75
2021/08/17 07:03:29;;;;;;;74.07;30.20;;;16.30;50.60;;;;;;5063995;28;20429;-77
2021/08/17 07:05:55;;;;;;;69.13;28.02;;;16.40;50.80;;;;;;5063768;28;20444;-75
2021/08/17 07:08:21;;;;;;;66.15;27.33;;;16.60;49.40;;;;;;5053934;28;20723;-74
2021/08/17 07:10:47;;;;;;;59.22;27.58;;;16.90;47.50;;;;;;5060763;28;20399;-77
2021/08/17 07:13:13;;;;;;;61.15;28.17;;;17.20;44.90;;;;;;5057131;28;20397;-77
2021/08/17 07:15:40;;;;;;;58.05;26.70;;;17.60;42.90;;;;;;5060448;28;20856;-76
2021/08/17 07:18:05;;;;;;;62.05;27.58;;;17.80;41.90;;;;;;5059882;28;20400;-77
2021/08/17 07:20:31;;;;;;;67.60;27.53;;;17.80;41.60;;;;;;5052322;28;20403;-77
2021/08/17 07:22:57;;;;;;;64.70;28.33;;;17.80;40.80;;;;;;5056157;28;20746;-76
2021/08/17 07:25:22;;;;;;;67.80;27.80;;;17.80;42.00;;;;;;5053809;28;20401;-76
2021/08/17 07:27:48;;;;;;;64.83;27.50;;;17.80;40.90;;;;;;5061683;28;20397;-77
2021/08/17 07:30:14;;;;;;;58.38;27.08;;;17.70;41.80;;;;;;5060364;28;20409;-77
2021/08/17 07:32:41;;;;;;;57.92;25.00;;;17.70;41.90;;;;;;5065877;28;20424;-77
2021/08/17 07:35:09;;;;;;;56.27;25.90;;;17.70;41.80;;;;;;5063568;28;20516;-76
2021/08/17 07:37:35;;;;;;;58.80;27.00;;;17.50;42.40;;;;;;5061185;28;20389;-76
2021/08/17 07:40:01;;;;;;;61.65;27.98;;;17.50;43.20;;;;;;5060509;28;20511;-76
2021/08/17 07:42:27;;;;;;;62.92;25.95;;;17.40;44.90;;;;;;5059820;28;20388;-77
2021/08/17 07:44:52;;;;;;;57.13;25.77;;;17.50;43.20;;;;;;5059338;28;20445;-76
2021/08/17 07:47:18;;;;;;;61.30;27.80;;;17.60;43.00;;;;;;5058100;28;20408;-77
2021/08/17 07:49:44;;;;;;;50.63;25.40;;;17.60;42.90;;;;;;5052988;28;20385;-76
2021/08/17 07:52:09;;;;;;;58.23;25.50;;;17.80;41.50;;;;;;5053477;28;20410;-77
2021/08/17 07:54:35;;;;;;;56.90;25.57;;;18.00;40.70;;;;;;5054293;28;20392;-77
2021/08/17 07:57:01;;;;;;;56.60;25.40;;;18.10;40.10;;;;;;5054301;28;20428;-77
2021/08/17 07:59:26;;;;;;;54.23;26.53;;;18.20;40.00;;;;;;5060620;28;20430;-78
2021/08/17 08:01:52;;;;;;;57.13;25.67;;;18.40;39.00;;;;;;5045002;28;20397;-77
2021/08/17 08:04:17;;;;;;;56.15;26.33;;;18.50;37.90;;;;;;5042860;28;20453;-76
2021/08/17 08:06:43;;;;;;;61.60;26.30;;;18.40;37.90;;;;;;5060395;28;20421;-77
2021/08/17 08:09:09;;;;;;;54.83;25.43;;;18.30;38.10;;;;;;5040691;28;20390;-77
2021/08/17 08:11:35;;;;;;;55.70;26.00;;;18.50;38.30;;;;;;5056931;28;20467;-77
2021/08/17 08:14:00;;;;;;;53.53;26.27;;;18.70;37.70;;;;;;5059314;28;20558;-78
2021/08/17 08:16:26;;;;;;;58.97;27.02;;;18.90;36.70;;;;;;5056299;28;20416;-76
2021/08/17 08:18:52;;;;;;;53.15;26.67;;;18.90;36.20;;;;;;5039836;28;20381;-77
2021/08/17 08:21:18;;;;;;;55.40;27.00;;;18.90;35.60;;;;;;5058413;28;20396;-77
2021/08/17 08:23:44;;;;;;;66.80;27.53;;;18.70;36.50;;;;;;5060789;28;20497;-77
2021/08/17 08:26:12;;;;;;;57.80;26.80;;;18.50;36.70;;;;;;5062998;28;20407;-77
2021/08/17 08:28:38;;;;;;;57.50;27.27;;;18.50;37.70;;;;;;5062276;28;20496;-76
2021/08/17 08:31:03;;;;;;;53.80;25.93;;;18.50;37.30;;;;;;5054643;28;20464;-77
2021/08/17 08:33:30;;;;;;;60.03;26.70;;;18.80;36.50;;;;;;5054071;28;20397;-76
2021/08/17 08:35:56;;;;;;;57.50;25.00;;;18.90;36.10;;;;;;5053453;28;20458;-77
2021/08/17 08:38:21;;;;;;;52.65;24.00;;;19.10;34.90;;;;;;5057196;28;20449;-76
2021/08/17 08:40:49;;;;;;;60.70;28.10;;;19.00;34.90;;;;;;5056001;28;20484;-77
2021/08/17 08:43:19;;;;;;;53.08;25.08;;;18.90;35.70;;;;;;5053656;28;20400;-77
2021/08/17 08:45:47;;;;;;;53.92;24.48;;;18.90;35.20;;;;;;5043360;28;20434;-77
2021/08/17 08:48:14;;;;;;;52.58;24.30;;;18.90;35.00;;;;;;5052967;28;20459;-76
2021/08/17 08:50:44;;;;;;;46.20;22.73;;;18.90;35.10;;;;;;5037256;28;20845;-77
2021/08/17 08:53:11;;;;;;;47.47;21.80;;;19.20;33.40;;;;;;5056781;28;20397;-77
2021/08/17 08:55:37;;;;;;;42.70;21.90;;;19.30;33.60;;;;;;5053546;28;20447;-75
2021/08/17 08:58:03;;;;;;;49.13;22.33;;;19.60;32.80;;;;;;5051543;28;20385;-75
2021/08/17 09:00:28;;;;;;;42.13;21.45;;;19.90;30.50;;;;;;5052090;28;20858;-76
2021/08/17 09:02:54;;;;;;;39.80;20.70;;;20.30;29.70;;;;;;5051334;28;20474;-75
2021/08/17 09:05:22;;;;;;;48.80;20.58;;;20.30;29.20;;;;;;5050937;28;20397;-75
2021/08/17 09:07:49;;;;;;;39.93;20.70;;;20.10;30.00;;;;;;5051364;28;20739;-76
2021/08/17 09:10:20;;;;;;;50.00;20.65;;;20.00;30.20;;;;;;5044070;28;20902;-74
2021/08/17 09:12:52;;;;;;;45.10;21.47;;;19.60;30.10;;;;;;5021923;28;20408;-77
2021/08/17 09:15:29;;;;;;;44.22;19.77;;;19.30;31.40;;;;;;5055254;28;20412;-77
2021/08/17 09:18:09;;;;;;;45.30;20.60;;;19.40;31.30;;;;;;5054056;28;20543;-77
2021/08/17 09:20:42;;;;;;;41.33;19.95;;;19.70;31.20;;;;;;5055146;28;20404;-78
2021/08/17 09:23:24;;;;;;;42.55;20.60;;;19.90;29.80;;;;;;5038475;28;20393;-76
2021/08/17 09:25:51;;;;;;;35.73;18.50;;;20.30;28.40;;;;;;5054962;28;20489;-78
2021/08/17 09:28:24;;;;;;;37.70;18.05;;;20.50;27.40;;;;;;5054774;28;20400;-79
2021/08/17 09:30:49;;;;;;;40.90;19.20;;;20.40;26.60;;;;;;5054948;28;20386;-77
2021/08/17 09:33:15;;;;;;;38.43;18.70;;;20.10;28.40;;;;;;5055713;28;20876;-77
2021/08/17 09:35:41;;;;;;;34.33;18.80;;;20.10;28.30;;;;;;5039430;28;20414;-79
2021/08/17 09:38:12;;;;;;;34.30;18.03;;;20.20;27.50;;;;;;5065057;28;20401;-77
2021/08/17 09:40:38;;;;;;;41.65;18.70;;;20.20;26.70;;;;;;5068250;28;20390;-77
2021/08/17 09:43:25;;;;;;;41.78;18.88;;;19.90;27.30;;;;;;5067455;28;20875;-78
2021/08/17 09:45:51;;;;;;;39.60;19.43;;;19.70;28.00;;;;;;5061131;28;20442;-77
2021/08/17 09:48:28;;;;;;;34.30;18.23;;;19.60;28.50;;;;;;5060294;28;20408;-78
2021/08/17 09:50:54;;;;;;;37.40;17.63;;;19.80;27.20;;;;;;5062505;28;20388;-79
2021/08/17 09:53:21;;;;;;;36.35;19.02;;;19.80;27.20;;;;;;5060426;28;20424;-77
2021/08/17 09:55:55;;;;;;;37.08;17.70;;;19.70;27.90;;;;;;5054040;28;20477;-76
2021/08/17 09:58:31;;;;;;;32.10;17.15;;;19.60;27.70;;;;;;5054961;28;20399;-76
2021/08/17 10:00:58;;;;;;;33.38;16.92;;;19.30;28.90;;;;;;5070141;28;20401;-79
2021/08/17 10:03:25;;;;;;;38.63;18.92;;;19.30;29.00;;;;;;5068355;28;20401;-78
2021/08/17 10:05:51;;;;;;;41.80;19.63;;;19.30;29.40;;;;;;5054067;28;20420;-78
2021/08/17 10:08:17;;;;;;;34.30;17.85;;;19.20;30.00;;;;;;5041626;28;20489;-77
2021/08/17 10:10:49;;;;;;;38.88;18.52;;;19.30;27.90;;;;;;5059392;28;20716;-79
2021/08/17 10:13:17;;;;;;;33.05;17.80;;;19.30;28.10;;;;;;5057541;28;20404;-77
2021/08/17 10:15:44;;;;;;;39.97;19.13;;;19.60;27.90;;;;;;5041380;28;20432;-80
2021/08/17 10:18:12;;;;;;;34.13;18.38;;;19.70;28.00;;;;;;5059392;28;20390;-77
2021/08/17 10:20:41;;;;;;;37.85;18.38;;;19.80;27.90;;;;;;5042838;28;20440;-79
2021/08/17 10:23:08;;;;;;;31.67;16.63;;;19.80;27.10;;;;;;5059747;28;20428;-79
2021/08/17 10:25:47;;;;;;;29.38;16.60;;;19.60;26.50;;;;;;5061209;28;20416;-78
2021/08/17 10:28:45;;;;;;;32.15;16.98;;;19.30;26.70;;;;;;5061276;28;20384;-77
2021/08/17 10:31:13;;;;;;;36.40;16.73;;;19.20;27.30;;;;;;5010581;28;20561;-77
2021/08/17 10:33:52;;;;;;;29.30;15.95;;;19.30;27.30;;;;;;5049221;28;20391;-78
2021/08/17 10:36:41;;;;;;;29.33;15.45;;;19.50;26.90;;;;;;5062512;28;20401;-78
2021/08/17 10:39:27;;;;;;;32.70;17.30;;;19.20;27.10;;;;;;5065312;28;20451;-78
2021/08/17 10:41:54;;;;;;;36.58;15.68;;;19.00;27.70;;;;;;5058948;28;20882;-80
2021/08/17 10:44:33;;;;;;;33.45;16.30;;;18.80;28.10;;;;;;5039187;28;20382;-78
2021/08/17 10:47:05;;;;;;;31.63;15.98;;;18.90;28.90;;;;;;5058749;28;20439;-76
2021/08/17 10:49:35;;;;;;;33.63;15.52;;;18.90;28.30;;;;;;5056138;28;20374;-75
2021/08/17 10:52:06;;;;;;;38.28;15.50;;;19.10;27.90;;;;;;5059328;28;20492;-79
2021/08/17 10:54:33;;;;;;;35.88;16.80;;;19.30;27.70;;;;;;5057808;28;20428;-78
2021/08/17 10:57:20;;;;;;;29.83;15.60;;;19.40;27.50;;;;;;5058883;28;20409;-77
2021/08/17 10:59:48;;;;;;;31.40;16.70;;;19.50;27.50;;;;;;5057656;28;21205;-77
2021/08/17 11:02:15;;;;;;;31.67;15.93;;;19.40;27.70;;;;;;5055030;28;20389;-77
2021/08/17 11:04:43;;;;;;;31.52;16.17;;;19.10;27.30;;;;;;5037908;28;20397;-78
2021/08/17 11:07:22;;;;;;;29.20;15.43;;;18.90;28.00;;;;;;5055243;28;20454;-78
2021/08/17 11:09:48;;;;;;;28.00;15.67;;;18.90;28.10;;;;;;5058047;28;20458;-79
2021/08/17 11:12:13;;;;;;;30.17;15.80;;;18.80;28.50;;;;;;5057750;28;20400;-79
2021/08/17 11:14:41;;;;;;;28.10;14.17;;;18.90;28.40;;;;;;5058453;28;20398;-79
2021/08/17 11:17:15;;;;;;;26.05;14.48;;;18.80;27.90;;;;;;5071789;28;20417;-78
2021/08/17 11:19:46;;;;;;;25.65;13.93;;;18.60;28.20;;;;;;5059315;28;20393;-79
2021/08/17 11:22:18;;;;;;;30.40;14.80;;;18.60;28.90;;;;;;5039650;28;20458;-80
2021/08/17 11:24:51;;;;;;;27.47;14.10;;;18.60;28.50;;;;;;5061792;28;20941;-77
2021/08/17 11:27:28;;;;;;;25.05;13.35;;;18.60;28.80;;;;;;5064637;28;20937;-78
2021/08/17 11:30:05;;;;;;;26.33;13.13;;;18.60;28.50;;;;;;5044116;28;20802;-77
2021/08/17 11:32:35;;;;;;;25.63;13.30;;;18.60;28.50;;;;;;5061911;28;20393;-76
2021/08/17 11:35:16;;;;;;;25.67;13.50;;;18.70;28.30;;;;;;5061393;28;20389;-79
2021/08/17 11:37:44;;;;;;;21.23;11.02;;;18.70;28.60;;;;;;5065759;28;20480;-77
2021/08/17 11:40:11;;;;;;;20.65;11.43;;;18.80;27.10;;;;;;5065960;28;20393;-76
2021/08/17 11:42:41;;;;;;;20.00;11.63;;;18.90;27.60;;;;;;5065971;28;20466;-77
2021/08/17 11:45:08;;;;;;;21.00;10.13;;;19.00;26.60;;;;;;5064966;28;20378;-79
2021/08/17 11:47:35;;;;;;;24.20;11.07;;;18.90;27.60;;;;;;5067575;28;20385;-76
2021/08/17 11:50:04;;;;;;;21.33;10.07;;;18.70;27.40;;;;;;5069957;28;20503;-76
2021/08/17 11:52:38;;;;;;;18.73;9.87;;;18.60;28.40;;;;;;5049413;28;20933;-76
2021/08/17 11:55:04;;;;;;;14.40;9.25;;;18.40;29.30;;;;;;5066286;28;20393;-76
2021/08/17 11:57:32;;;;;;;18.95;8.70;;;18.30;31.00;;;;;;5068403;28;20405;-77
2021/08/17 12:00:10;;;;;;;17.17;8.95;;;18.20;30.20;;;;;;5068806;28;20385;-76
2021/08/17 12:02:37;;;;;;;17.23;9.00;;;18.10;30.30;;;;;;5067221;28;20858;-77
2021/08/17 12:05:06;;;;;;;15.27;8.60;;;17.90;31.00;;;;;;5067273;28;20389;-75
2021/08/17 12:07:32;;;;;;;19.60;9.98;;;17.70;30.90;;;;;;5060048;28;20447;-78
2021/08/17 12:10:11;;;;;;;15.30;9.50;;;17.60;31.90;;;;;;5059784;28;20432;-78
2021/08/17 12:13:00;;;;;;;17.35;9.10;;;17.50;32.90;;;;;;5038483;28;20445;-77
2021/08/17 12:15:41;;;;;;;18.45;8.52;;;17.40;34.10;;;;;;5051910;28;20409;-77
2021/08/17 12:18:18;;;;;;;17.37;8.83;;;17.20;33.70;;;;;;5063971;28;20733;-80
2021/08/17 12:20:43;;;;;;;15.43;8.70;;;17.10;36.20;;;;;;5056623;28;20433;-77
2021/08/17 12:23:19;;;;;;;18.57;9.53;;;17.00;35.40;;;;;;5055641;28;20525;-76
2021/08/17 12:25:45;;;;;;;20.35;9.80;;;16.90;36.10;;;;;;5038946;28;20404;-75
2021/08/17 12:31:17;;;;;;;21.05;10.48;;;16.80;36.30;;;;;;5066836;28;20431;-69
2021/08/17 12:33:46;;;;;;;21.70;10.10;;;16.80;38.10;;;;;;5069831;28;20376;-68